Time;durP1;ratioP1;P1;durP2;ratioP2;P2;SDS_P1;SDS_P2;PMS_P1;PMS_P2;Temp;Humidity;BMP_temperature;BMP_pressure;BME280_temperature;BME280_humidity;BME280_pressure;Samples;Min_cycle;Max_cycle;Signal;HPM_P1;HPM_P2
2021/06/18 00:00:31;;;;;;;3.90;1.58;;;23.20;49.70;;;25.89;38.64;101348.91;4995329;28;96946;-70
2021/06/18 00:03:00;;;;;;;11.90;1.80;;;23.20;49.70;;;25.85;38.58;101348.88;4994855;28;99031;-71
2021/06/18 00:05:29;;;;;;;2.63;1.80;;;23.10;49.70;;;25.80;39.02;101345.69;4988894;28;97651;-70
2021/06/18 00:08:00;;;;;;;2.78;1.75;;;23.10;49.70;;;25.73;38.84;101327.25;4989178;28;96858;-70
2021/06/18 00:10:30;;;;;;;1.57;1.13;;;23.10;49.70;;;25.68;39.04;101326.84;4990287;28;97498;-71
2021/06/18 00:12:59;;;;;;;4.53;2.25;;;23.10;49.80;;;25.69;39.10;101322.91;4995754;28;97813;-71
2021/06/18 00:15:30;;;;;;;3.22;2.13;;;23.10;49.80;;;25.65;39.21;101333.88;4989411;28;98070;-70
2021/06/18 00:17:59;;;;;;;1.20;1.10;;;23.00;49.80;;;25.61;39.15;101327.59;4994075;28;96918;-70
2021/06/18 00:20:30;;;;;;;2.70;1.35;;;23.00;49.90;;;25.62;38.95;101331.16;4993402;28;97512;-70
2021/06/18 00:23:00;;;;;;;2.83;2.42;;;23.00;49.90;;;25.56;39.16;101321.72;4989982;28;97988;-71
2021/06/18 00:25:33;;;;;;;8.95;1.83;;;22.90;50.00;;;25.55;39.55;101325.66;4989826;28;98714;-71
2021/06/18 00:28:05;;;;;;;2.25;1.65;;;22.90;50.00;;;25.48;39.21;101314.63;4996371;28;96869;-70
2021/06/18 00:30:34;;;;;;;7.97;2.53;;;22.80;50.00;;;25.45;39.06;101312.66;4992828;28;97011;-70
2021/06/18 00:33:03;;;;;;;7.43;2.17;;;22.80;50.10;;;25.46;39.37;101308.72;4991332;28;97906;-71
2021/06/18 00:35:32;;;;;;;1.02;0.93;;;22.80;50.10;;;25.44;39.55;101311.09;4992874;28;97659;-70
2021/06/18 00:38:03;;;;;;;3.47;1.95;;;22.70;50.10;;;25.41;39.15;101314.59;4989370;28;97424;-70
2021/06/18 00:40:33;;;;;;;1.38;1.20;;;22.70;50.20;;;25.34;39.64;101320.06;5003723;28;97135;-70
2021/06/18 00:43:04;;;;;;;11.85;4.25;;;22.60;50.30;;;25.29;39.79;101317.72;4995342;28;97976;-71
2021/06/18 00:45:33;;;;;;;4.20;1.80;;;22.60;50.30;;;25.23;39.55;101315.72;4994706;28;98262;-71
2021/06/18 00:48:03;;;;;;;5.10;3.92;;;22.60;50.40;;;25.18;39.90;101325.09;4989861;28;97204;-70
2021/06/18 00:50:32;;;;;;;4.47;2.85;;;22.50;50.30;;;25.18;39.64;101330.56;4993926;28;97335;-70
2021/06/18 00:53:04;;;;;;;6.57;2.17;;;22.50;50.40;;;25.06;39.73;101319.13;4992270;28;97646;-70
2021/06/18 00:55:34;;;;;;;5.40;2.10;;;22.40;50.50;;;25.02;39.73;101310.09;4975320;28;99090;-70
2021/06/18 00:58:04;;;;;;;5.07;2.42;;;22.40;50.50;;;24.89;40.16;101298.66;4995988;28;97555;-70
2021/06/18 01:00:33;;;;;;;5.55;2.75;;;22.40;50.60;;;24.83;40.21;101288.47;4989994;28;97158;-70
2021/06/18 01:03:03;;;;;;;4.85;2.60;;;22.40;50.70;;;24.79;40.28;101288.44;4996320;28;97836;-70
2021/06/18 01:05:33;;;;;;;2.03;1.83;;;22.30;50.60;;;24.81;39.94;101293.56;4989924;28;97278;-70
2021/06/18 01:08:14;;;;;;;0.88;0.85;;;22.20;50.70;;;24.77;40.20;101288.03;4993381;28;97800;-70
2021/06/18 01:11:05;;;;;;;5.78;1.67;;;22.20;50.80;;;24.72;40.18;101274.72;5002461;28;98968;-71
2021/06/18 01:13:51;;;;;;;1.38;1.27;;;22.20;50.90;;;24.69;40.38;101283.69;4988529;28;99261;-70
2021/06/18 01:16:32;;;;;;;2.55;1.58;;;22.10;50.80;;;24.66;40.29;101284.47;4987284;28;97860;-70
2021/06/18 01:19:10;;;;;;;1.88;1.25;;;22.10;50.90;;;24.61;40.37;101284.81;4993986;28;97040;-70
2021/06/18 01:21:42;;;;;;;1.85;1.63;;;22.10;50.90;;;24.59;40.46;101292.63;4995894;28;96964;-70
2021/06/18 01:24:32;;;;;;;3.08;1.98;;;22.00;50.90;;;24.57;40.37;101292.22;4993611;28;98121;-70
2021/06/18 01:27:19;;;;;;;1.80;1.70;;;22.00;51.10;;;24.59;40.34;101298.09;5003218;28;99519;-70
2021/06/18 01:29:55;;;;;;;1.20;1.15;;;22.00;51.10;;;24.55;40.37;101289.06;4997906;28;97328;-70
2021/06/18 01:32:33;;;;;;;9.25;2.63;;;22.00;51.10;;;24.52;40.15;101294.56;4998488;28;97014;-70
2021/06/18 01:35:05;;;;;;;5.43;3.25;;;21.90;51.10;;;24.47;40.21;101292.13;4995216;28;97938;-70
2021/06/18 01:37:36;;;;;;;3.15;2.10;;;21.90;51.10;;;24.52;40.29;101292.59;4992228;28;98305;-70
2021/06/18 01:40:10;;;;;;;4.13;2.15;;;21.90;51.20;;;24.45;40.54;101297.19;4994145;28;97222;-70
2021/06/18 01:42:44;;;;;;;30.25;3.75;;;21.80;51.20;;;24.37;40.62;101282.69;4997481;28;97108;-70
2021/06/18 01:45:18;;;;;;;3.08;2.22;;;21.80;51.20;;;24.34;40.55;101282.66;4997987;28;97909;-70
2021/06/18 01:47:49;;;;;;;8.70;1.60;;;21.80;51.90;;;24.27;40.75;101288.84;4999177;28;97771;-70
2021/06/18 01:50:23;;;;;;;3.33;2.40;;;21.70;51.30;;;24.20;40.55;101285.28;4997033;28;97309;-70
2021/06/18 01:53:00;;;;;;;3.90;2.35;;;21.70;51.40;;;24.16;40.75;101274.28;4995577;28;96946;-70
2021/06/18 01:55:31;;;;;;;9.50;2.72;;;21.70;51.40;;;24.11;41.03;101269.19;4992975;28;98356;-70
2021/06/18 01:58:04;;;;;;;6.75;3.90;;;21.60;51.40;;;24.05;40.78;101262.47;4996825;28;98410;-70
2021/06/18 02:00:39;;;;;;;;;;;21.60;51.50;;;24.01;40.72;101263.59;4993511;28;96833;-70
2021/06/18 02:03:16;;;;;;;3.17;2.22;;;21.60;51.80;;;23.98;40.81;101270.63;5006740;28;98244;-70
2021/06/18 02:05:47;;;;;;;2.53;2.33;;;21.50;51.60;;;24.01;40.63;101266.34;5007991;28;97920;-70
2021/06/18 02:08:16;;;;;;;4.60;2.78;;;21.50;51.60;;;24.01;40.85;101267.13;4997529;28;97942;-70
2021/06/18 02:10:47;;;;;;;3.45;2.55;;;21.50;51.60;;;23.99;40.75;101258.50;4988400;28;96910;-70
2021/06/18 02:13:19;;;;;;;3.25;2.72;;;21.40;51.60;;;23.94;40.92;101250.63;5005395;28;97037;-70
2021/06/18 02:15:50;;;;;;;4.28;2.08;;;21.40;51.70;;;23.94;40.94;101250.63;4990922;28;97854;-70
2021/06/18 02:18:22;;;;;;;7.80;3.03;;;21.40;51.70;;;23.91;41.12;101256.09;4998581;28;97869;-70
2021/06/18 02:20:57;;;;;;;7.10;2.73;;;21.40;51.80;;;23.87;41.03;101257.22;4994749;28;97384;-70
2021/06/18 02:23:30;;;;;;;5.35;3.55;;;21.30;51.80;;;23.83;41.14;101265.41;4994958;28;97171;-70
2021/06/18 02:26:03;;;;;;;;;;;21.30;51.80;;;23.80;41.23;101255.16;4995506;28;96812;-70
2021/06/18 02:28:32;;;;;;;3.55;2.42;;;21.30;52.20;;;23.79;41.07;101269.25;4993617;28;96917;-70
2021/06/18 02:31:07;;;;;;;7.22;2.95;;;21.30;51.90;;;23.72;41.10;101280.91;4994619;28;96951;-70
2021/06/18 02:33:37;;;;;;;3.17;2.63;;;21.20;52.50;;;23.71;41.35;101282.06;4995746;28;96956;-70
2021/06/18 02:36:07;;;;;;;4.68;2.17;;;21.20;51.90;;;23.73;41.24;101278.97;4992124;28;96903;-70
2021/06/18 02:38:36;;;;;;;4.68;2.92;;;21.20;52.00;;;23.71;41.36;101273.06;4978051;28;97374;-70
2021/06/18 02:41:05;;;;;;;6.80;3.53;;;21.20;52.00;;;23.68;41.39;101257.41;4989530;28;96857;-70
2021/06/18 02:43:33;;;;;;;3.58;2.63;;;21.20;52.10;;;23.64;41.54;101259.31;4995112;28;97168;-70
2021/06/18 02:46:06;;;;;;;6.25;2.97;;;21.20;52.10;;;23.59;41.39;101254.19;4993272;28;97895;-70
2021/06/18 02:48:43;;;;;;;19.13;4.22;;;21.10;52.10;;;23.58;41.51;101255.34;4994859;28;97672;-70
2021/06/18 02:51:21;;;;;;;7.00;2.50;;;21.10;52.10;;;23.61;41.44;101251.88;4997081;28;96822;-70
2021/06/18 02:53:58;;;;;;;5.25;3.53;;;21.10;52.20;;;23.68;41.19;101246.44;4999370;28;96731;-70
2021/06/18 02:56:35;;;;;;;4.78;2.20;;;21.10;52.20;;;23.64;41.62;101262.84;4993994;28;97945;-71
2021/06/18 02:59:16;;;;;;;3.60;2.28;;;21.10;52.20;;;23.66;41.20;101270.69;4994139;28;96843;-71
2021/06/18 03:01:48;;;;;;;6.72;3.60;;;21.00;52.30;;;23.57;41.35;101272.94;4995133;28;96866;-71
2021/06/18 03:04:22;;;;;;;;;;;21.00;52.30;;;23.55;41.14;101275.25;4995309;28;96719;-71
2021/06/18 03:06:55;;;;;;;1.70;1.60;;;21.00;52.60;;;23.53;41.50;101272.13;5003054;28;97021;-71
2021/06/18 03:09:32;;;;;;;7.25;2.65;;;21.00;52.30;;;23.57;41.48;101264.72;4990811;28;97754;-71
2021/06/18 03:12:04;;;;;;;3.67;3.17;;;21.00;52.30;;;23.51;41.30;101264.28;4993614;28;97216;-71
2021/06/18 03:14:36;;;;;;;1.70;1.60;;;21.00;52.30;;;;;;4992394;28;100725;-71
2021/06/18 03:17:10;;;;;;;3.97;2.13;;;21.00;52.30;;;23.55;41.92;101273.28;4993353;28;97553;-71
2021/06/18 03:19:47;;;;;;;5.55;2.38;;;21.00;52.40;;;23.63;41.66;101265.94;4992030;28;97005;-71
2021/06/18 03:22:16;;;;;;;4.03;3.42;;;21.00;52.40;;;23.67;41.55;101261.31;4996524;28;97163;-71
2021/06/18 03:24:49;;;;;;;3.85;2.75;;;21.10;52.40;;;23.72;41.30;101269.16;4990650;28;97506;-71
2021/06/18 03:27:20;;;;;;;2.13;1.77;;;21.10;52.40;;;23.74;41.36;101272.34;4992501;28;97949;-71
2021/06/18 03:29:53;;;;;;;8.43;2.55;;;21.10;52.40;;;23.76;41.45;101276.25;4976899;28;97777;-71
2021/06/18 03:32:25;;;;;;;3.83;2.45;;;21.20;52.40;;;23.88;41.28;101280.69;4995769;28;96851;-71
2021/06/18 03:34:56;;;;;;;5.88;3.10;;;21.20;52.40;;;23.97;41.19;101274.53;4995301;28;98001;-71
2021/06/18 03:37:27;;;;;;;3.55;2.45;;;21.20;52.40;;;23.92;41.26;101278.78;4992045;28;96873;-71
2021/06/18 03:39:56;;;;;;;5.70;2.25;;;21.20;52.30;;;23.96;41.24;101278.41;4992764;28;96872;-71
2021/06/18 03:42:26;;;;;;;12.40;2.20;;;21.20;52.30;;;24.00;41.39;101281.19;4970563;28;97785;-71
2021/06/18 03:44:56;;;;;;;12.75;5.60;;;21.30;52.30;;;24.02;41.10;101284.34;4994346;28;96901;-71
2021/06/18 03:47:28;;;;;;;8.68;3.47;;;21.40;52.30;;;24.11;41.08;101277.38;5008243;28;97801;-71
2021/06/18 03:49:58;;;;;;;3.83;3.50;;;21.40;52.30;;;24.17;41.07;101283.31;4993408;28;98978;-71
2021/06/18 03:52:28;;;;;;;3.20;2.67;;;21.40;52.20;;;24.20;41.17;101279.81;4988812;28;96878;-70
2021/06/18 03:54:57;;;;;;;11.70;4.40;;;21.50;52.20;;;24.27;41.01;101282.59;4990284;28;97065;-71
2021/06/18 03:57:26;;;;;;;7.20;2.58;;;21.50;52.10;;;24.29;41.05;101283.78;4991470;28;97885;-71
2021/06/18 03:59:57;;;;;;;4.82;3.63;;;21.60;52.20;;;24.35;41.08;101284.22;4993104;28;98251;-71
2021/06/18 04:02:27;;;;;;;6.85;3.80;;;21.60;52.10;;;24.41;40.88;101278.00;4995271;28;96867;-71
2021/06/18 04:04:57;;;;;;;5.07;3.45;;;21.70;52.10;;;24.51;41.06;101284.75;4997092;28;97643;-71
2021/06/18 04:07:28;;;;;;;6.70;3.90;;;21.70;52.00;;;24.57;40.57;101284.00;4992664;28;97939;-71
2021/06/18 04:09:58;;;;;;;3.40;3.10;;;21.80;52.00;;;24.68;40.68;101289.56;5006649;28;100331;-71
2021/06/18 04:12:27;;;;;;;9.32;4.68;;;21.90;52.00;;;24.76;40.56;101291.97;4987661;28;96981;-71
2021/06/18 04:14:56;;;;;;;6.15;2.17;;;21.90;51.90;;;24.89;40.39;101306.13;4993682;28;96901;-71
2021/06/18 04:17:27;;;;;;;4.80;3.05;;;22.00;51.80;;;24.93;40.47;101310.47;4991657;28;98241;-71
2021/06/18 04:19:58;;;;;;;4.90;3.03;;;22.10;51.80;;;25.00;40.54;101307.75;4993030;28;96811;-71
2021/06/18 04:22:34;;;;;;;6.22;4.45;;;22.20;51.70;;;25.06;40.22;101311.69;4993603;28;97531;-71
2021/06/18 04:25:04;;;;;;;5.65;2.50;;;22.30;51.70;;;25.17;40.47;101307.06;4993954;28;97075;-71
2021/06/18 04:27:34;;;;;;;4.28;2.92;;;22.30;51.60;;;25.24;40.34;101304.38;5009669;28;96903;-71
2021/06/18 04:30:09;;;;;;;3.53;2.55;;;22.40;51.60;;;25.34;39.91;101300.88;4994862;28;96867;-71
2021/06/18 04:32:41;;;;;;;6.05;3.50;;;22.50;51.60;;;25.43;40.00;101287.56;4991140;28;96985;-71
2021/06/18 04:35:12;;;;;;;10.50;4.47;;;22.50;51.50;;;25.42;39.96;101283.25;4995645;28;97486;-71
2021/06/18 04:37:42;;;;;;;5.05;1.83;;;22.60;51.50;;;25.42;40.08;101280.50;4993815;28;98031;-71
2021/06/18 04:40:13;;;;;;;8.82;3.05;;;22.60;51.50;;;25.45;40.27;101282.47;4993508;28;97831;-71
2021/06/18 04:42:43;;;;;;;6.43;4.00;;;22.60;51.50;;;25.50;40.48;101282.09;4991681;28;97904;-71
2021/06/18 04:45:13;;;;;;;2.70;2.50;;;22.70;51.60;;;25.58;39.88;101280.16;5006351;28;97847;-71
2021/06/18 04:47:43;;;;;;;8.07;3.15;;;22.70;51.50;;;25.63;40.17;101286.06;4996682;28;97491;-71
2021/06/18 04:50:12;;;;;;;5.72;3.85;;;22.70;51.50;;;25.73;40.12;101288.81;4992162;28;97910;-71
2021/06/18 04:52:42;;;;;;;7.80;4.97;;;22.80;51.40;;;25.87;39.81;101290.81;4987077;28;97155;-71
2021/06/18 04:55:15;;;;;;;7.15;4.25;;;22.90;51.40;;;26.00;39.45;101297.50;4993469;28;97012;-71
2021/06/18 04:57:45;;;;;;;7.38;4.82;;;23.00;51.30;;;26.13;39.89;101296.72;4989201;28;98951;-71
2021/06/18 05:00:17;;;;;;;7.57;3.78;;;23.10;51.30;;;26.27;39.41;101298.69;4990382;28;98725;-71
2021/06/18 05:02:47;;;;;;;6.53;4.10;;;23.20;51.20;;;26.42;39.27;101313.97;4987677;28;96902;-71
2021/06/18 05:05:16;;;;;;;10.05;4.22;;;23.30;51.20;;;26.54;39.48;101314.38;4995052;28;96885;-71
2021/06/18 05:07:44;;;;;;;6.80;3.58;;;23.40;51.10;;;26.74;38.97;101323.00;4994922;28;98030;-71
2021/06/18 05:10:14;;;;;;;6.43;3.28;;;23.50;51.00;;;26.88;39.13;101325.72;4985377;28;96885;-71
2021/06/18 05:12:45;;;;;;;12.60;3.78;;;23.70;51.00;;;27.07;38.79;101320.53;4990976;28;96829;-71
2021/06/18 05:15:15;;;;;;;18.58;4.93;;;23.80;50.90;;;27.17;38.51;101311.47;4998915;28;97047;-71
2021/06/18 05:17:44;;;;;;;7.80;4.43;;;23.90;50.80;;;27.31;38.79;101320.47;4983794;28;97903;-71
2021/06/18 05:20:16;;;;;;;6.63;4.00;;;24.10;50.80;;;27.46;38.50;101332.97;4997760;28;99804;-71
2021/06/18 05:22:46;;;;;;;;;;;24.20;50.70;;;27.59;38.16;101336.84;4991618;28;96763;-71
2021/06/18 05:25:16;;;;;;;6.25;3.60;;;24.30;50.80;;;27.78;38.38;101328.09;4991891;28;96836;-71
2021/06/18 05:27:45;;;;;;;15.43;3.80;;;24.50;50.50;;;27.93;38.10;101337.88;4987598;28;98002;-71
2021/06/18 05:30:18;;;;;;;21.23;4.53;;;24.60;50.30;;;28.13;38.12;101341.63;4989816;28;98026;-71
2021/06/18 05:32:49;;;;;;;3.53;2.78;;;25.10;50.10;;;28.50;37.91;101365.78;4975383;28;96824;-73
2021/06/18 05:35:19;;;;;;;4.70;3.63;;;25.40;49.50;;;29.00;37.33;101398.03;4990709;28;99529;-72
2021/06/18 05:37:51;;;;;;;4.82;3.30;;;25.80;49.50;;;29.82;36.46;101444.44;4987805;28;98084;-73
2021/06/18 05:40:20;;;;;;;8.13;5.17;;;26.20;49.40;;;30.01;36.45;101459.56;4994667;28;99474;-73
2021/06/18 05:42:49;;;;;;;9.57;5.07;;;26.60;49.20;;;29.24;37.80;101444.69;4988521;28;97004;-73
2021/06/18 05:45:18;;;;;;;6.18;2.63;;;26.40;49.30;;;28.57;39.03;101405.13;4990182;28;97355;-73
2021/06/18 05:47:47;;;;;;;7.25;5.18;;;26.00;49.80;;;28.19;39.60;101384.09;4991598;28;97575;-73
2021/06/18 05:50:16;;;;;;;9.43;3.85;;;25.70;50.30;;;28.12;39.63;101408.19;4988547;28;97730;-73
2021/06/18 05:52:46;;;;;;;5.25;2.90;;;25.40;50.50;;;28.49;38.87;101430.41;4993777;28;97340;-73
2021/06/18 05:55:15;;;;;;;4.18;3.42;;;25.40;50.70;;;30.70;35.30;101445.97;4987980;28;97436;-73
2021/06/18 05:57:44;;;;;;;6.40;3.42;;;26.20;50.20;;;31.46;34.54;101444.56;4967891;28;96911;-72
2021/06/18 06:00:14;;;;;;;23.65;4.50;;;27.40;49.40;;;31.89;34.69;101439.72;4988555;28;96930;-72
2021/06/18 06:03:05;;;;;;;6.55;4.80;;;28.40;48.30;;;31.77;35.43;101434.81;4971418;28;96787;-73
2021/06/18 06:05:33;;;;;;;4.28;3.50;;;28.90;47.80;;;33.38;33.61;101417.00;4991906;28;97414;-73
2021/06/18 06:08:04;;;;;;;3.88;3.05;;;30.40;47.00;;;35.69;30.96;101393.38;4995163;28;96918;-74
2021/06/18 06:10:47;;;;;;;11.13;3.42;;;31.70;46.00;;;37.46;29.24;101395.44;4987747;28;97797;-73
2021/06/18 06:13:18;;;;;;;8.37;4.27;;;33.00;45.30;;;38.50;28.71;101406.41;4995802;28;96946;-74
2021/06/18 06:15:50;;;;;;;6.80;3.63;;;33.80;44.60;;;39.24;28.30;101415.34;4995074;28;96970;-73
2021/06/18 06:18:19;;;;;;;8.23;4.27;;;34.60;44.50;;;39.45;28.43;101411.41;4995000;28;98053;-74
2021/06/18 06:20:50;;;;;;;13.27;5.60;;;35.00;44.40;;;39.98;28.78;101412.06;4992328;28;97704;-74
2021/06/18 06:23:20;;;;;;;6.03;4.00;;;35.50;44.40;;;40.17;28.69;101402.16;4991596;28;96936;-74
2021/06/18 06:25:49;;;;;;;11.68;4.53;;;35.90;44.40;;;39.43;29.91;101391.50;4997181;28;96898;-74
2021/06/18 06:28:18;;;;;;;8.90;4.70;;;35.60;44.60;;;40.55;28.90;101387.91;4993492;28;96939;-74
2021/06/18 06:30:47;;;;;;;14.95;3.90;;;36.10;44.60;;;41.20;28.32;101381.50;4989539;28;96816;-73
2021/06/18 06:33:16;;;;;;;6.50;4.25;;;36.60;44.30;;;41.53;28.35;101385.41;4994677;28;96873;-74
2021/06/18 06:35:44;;;;;;;11.38;4.10;;;36.90;44.40;;;42.51;27.55;101374.09;4991902;28;96929;-74
2021/06/18 06:38:16;;;;;;;7.22;3.63;;;37.50;44.30;;;43.17;26.89;101324.28;4992644;28;98704;-74
2021/06/18 06:40:47;;;;;;;12.80;4.93;;;38.10;44.00;;;43.81;27.08;101292.16;4996824;28;98150;-73
2021/06/18 06:43:16;;;;;;;8.10;4.93;;;38.60;43.80;;;44.29;27.13;101282.00;4996288;28;96930;-71
2021/06/18 06:45:45;;;;;;;10.73;5.10;;;39.10;43.60;;;44.76;26.69;101282.81;4993608;28;97031;-74
2021/06/18 06:48:14;;;;;;;7.95;4.80;;;39.60;43.50;;;45.20;26.03;101267.03;4988785;28;97563;-71
2021/06/18 06:50:43;;;;;;;10.50;4.30;;;39.90;43.30;;;45.66;25.77;101252.69;5002082;28;96939;-74
2021/06/18 06:53:12;;;;;;;8.02;4.30;;;40.20;43.30;;;45.92;25.75;101312.41;5006037;28;97388;-74
2021/06/18 06:55:41;;;;;;;10.40;4.78;;;40.50;43.30;;;46.30;25.44;101328.22;4993062;28;97076;-74
2021/06/18 06:58:13;;;;;;;7.53;4.53;;;40.80;43.20;;;46.73;25.76;101300.56;4990510;28;97860;-74
2021/06/18 07:00:42;;;;;;;8.45;4.78;;;41.10;43.20;;;47.20;25.04;101295.97;4990990;28;96974;-74
2021/06/18 07:03:11;;;;;;;8.68;4.70;;;41.40;43.00;;;47.41;24.97;101234.41;4990462;28;96801;-75
2021/06/18 07:05:42;;;;;;;5.28;4.30;;;41.70;43.00;;;47.85;24.83;101242.81;4998922;28;97573;-75
2021/06/18 07:08:19;;;;;;;5.05;3.13;;;41.90;42.90;;;48.32;24.00;101232.28;4991568;28;98236;-75
2021/06/18 07:10:49;;;;;;;5.05;4.25;;;42.10;42.70;;;48.78;24.31;101235.06;4991188;28;97254;-72
2021/06/18 07:13:20;;;;;;;11.88;4.60;;;42.50;42.90;;;49.40;23.28;101244.34;5006578;28;100710;-72
2021/06/18 07:15:51;;;;;;;5.72;3.78;;;42.80;42.80;;;49.86;23.34;101251.88;4997818;28;96867;-72
2021/06/18 07:18:21;;;;;;;5.73;3.23;;;43.20;42.70;;;50.25;23.22;101260.06;4992617;28;96862;-72
2021/06/18 07:20:51;;;;;;;4.45;3.35;;;43.50;42.60;;;50.46;23.21;101263.56;4990430;28;96801;-72
2021/06/18 07:23:19;;;;;;;4.95;4.35;;;43.80;42.60;;;50.69;22.97;101268.00;4995211;28;97124;-72
2021/06/18 07:25:48;;;;;;;6.63;4.10;;;44.00;42.60;;;50.97;22.80;101284.22;4994277;28;97006;-72
2021/06/18 07:28:18;;;;;;;6.13;3.10;;;44.10;42.60;;;51.15;22.57;101289.56;4995941;28;96917;-72
2021/06/18 07:30:47;;;;;;;17.50;4.00;;;44.30;42.60;;;50.91;23.19;101306.50;4993722;28;96878;-72
2021/06/18 07:33:15;;;;;;;9.63;4.55;;;44.30;42.40;;;48.88;24.98;101315.06;4994146;28;96888;-72
2021/06/18 07:35:44;;;;;;;15.23;3.63;;;43.60;43.00;;;50.34;23.29;101288.03;4995888;28;96967;-74
2021/06/18 07:38:13;;;;;;;6.90;3.40;;;43.60;43.20;;;51.10;22.21;101278.34;4990378;28;97694;-72
2021/06/18 07:40:42;;;;;;;7.32;3.58;;;43.90;42.80;;;51.41;21.70;101274.91;4991766;28;97666;-72
2021/06/18 07:43:12;;;;;;;4.85;3.20;;;44.00;42.50;;;51.99;21.88;101268.91;4990934;28;97556;-72
2021/06/18 07:45:42;;;;;;;13.13;4.43;;;44.20;42.50;;;52.45;20.49;101270.97;4996046;28;97023;-72
2021/06/18 07:48:10;;;;;;;5.20;2.85;;;44.50;42.50;;;52.86;20.70;101276.09;4994299;28;96844;-72
2021/06/18 07:50:41;;;;;;;6.43;3.67;;;44.70;42.50;;;53.14;20.36;101281.38;4994796;28;97629;-72
2021/06/18 07:53:09;;;;;;;4.22;2.63;;;44.80;42.50;;;53.47;20.05;101291.44;4988993;28;97118;-72
2021/06/18 07:55:38;;;;;;;9.85;3.47;;;45.00;42.50;;;53.77;19.74;101298.97;4973452;28;97689;-72
2021/06/18 07:58:08;;;;;;;6.05;2.90;;;45.20;42.50;;;53.90;19.72;101296.56;4994280;28;97861;-73
2021/06/18 08:00:37;;;;;;;5.32;3.42;;;45.30;42.40;;;54.17;19.45;101298.09;4993073;28;97907;-73
2021/06/18 08:03:08;;;;;;;6.03;3.40;;;45.40;42.50;;;54.28;19.24;101309.09;4992460;28;97657;-73
2021/06/18 08:05:37;;;;;;;3.25;2.58;;;45.50;42.50;;;54.42;19.19;101315.25;4995067;28;96982;-73
2021/06/18 08:08:06;;;;;;;5.72;2.92;;;45.50;42.50;;;54.23;19.27;101315.88;4991221;28;100553;-73
2021/06/18 08:10:51;;;;;;;9.18;3.15;;;45.60;42.60;;;53.36;21.35;101319.84;4989502;28;96827;-72
2021/06/18 08:13:21;;;;;;;14.95;3.53;;;45.50;42.70;;;49.98;25.65;101321.53;4988095;28;97216;-73
2021/06/18 08:15:50;;;;;;;3.38;2.58;;;44.80;43.20;;;48.29;25.67;101312.25;4989671;28;97061;-73
2021/06/18 08:18:20;;;;;;;7.97;3.10;;;43.80;43.80;;;46.83;28.84;101308.16;4993707;28;98014;-73
2021/06/18 08:20:49;;;;;;;3.13;2.17;;;42.90;44.30;;;46.94;28.14;101312.91;4994870;28;97888;-73
2021/06/18 08:23:18;;;;;;;2.65;2.35;;;42.10;44.80;;;46.10;28.97;101323.03;4992154;28;97208;-72
2021/06/18 08:25:49;;;;;;;3.50;2.25;;;41.60;45.20;;;45.99;28.30;101325.22;4985227;28;97746;-72
2021/06/18 08:28:18;;;;;;;12.63;3.88;;;41.20;45.50;;;47.77;24.34;101317.97;4990121;28;97986;-72
2021/06/18 08:30:47;;;;;;;20.00;2.20;;;41.00;45.50;;;50.52;21.16;101313.44;4993824;28;98646;-72
2021/06/18 08:33:20;;;;;;;1.77;1.63;;;41.50;45.00;;;51.95;20.26;101308.56;4986963;28;97395;-73
2021/06/18 08:35:49;;;;;;;3.00;2.20;;;42.10;44.40;;;52.19;20.40;101305.06;4992156;28;96842;-73
2021/06/18 08:38:18;;;;;;;5.70;2.95;;;42.60;44.00;;;52.55;19.72;101309.13;4991614;28;97118;-73
2021/06/18 08:40:47;;;;;;;3.58;2.13;;;42.90;43.80;;;52.57;20.30;101300.69;4989278;28;97397;-73
2021/06/18 08:43:17;;;;;;;5.32;2.30;;;43.10;43.70;;;52.89;19.94;101294.97;4987790;28;96936;-72
2021/06/18 08:45:46;;;;;;;4.93;2.72;;;43.20;43.70;;;51.50;22.08;101299.31;4995678;28;97284;-73
2021/06/18 08:48:15;;;;;;;3.63;2.25;;;43.20;43.80;;;51.06;22.88;101287.31;4988405;28;97999;-72
2021/06/18 08:50:46;;;;;;;3.22;2.03;;;43.20;43.90;;;52.40;20.71;101289.16;4987569;28;97277;-72
2021/06/18 08:53:18;;;;;;;3.78;1.63;;;43.40;43.70;;;53.18;19.95;101283.84;4990650;28;97633;-72
2021/06/18 08:55:49;;;;;;;7.07;2.63;;;43.60;43.60;;;51.14;22.86;101293.75;4963471;28;97073;-71
2021/06/18 08:58:18;;;;;;;2.55;1.95;;;43.50;43.40;;;48.96;25.35;101279.66;4994050;28;96711;-72
2021/06/18 09:00:47;;;;;;;7.38;2.25;;;43.10;43.70;;;47.50;26.83;101273.75;4989444;28;97588;-72
2021/06/18 09:03:42;;;;;;;15.00;3.13;;;42.50;44.00;;;46.22;28.08;101273.41;4994313;28;96770;-72
2021/06/18 09:06:36;;;;;;;2.17;1.45;;;41.80;44.20;;;44.85;29.77;101268.34;4990369;28;96820;-71
2021/06/18 09:09:20;;;;;;;3.15;2.15;;;41.10;44.40;;;43.65;30.36;101267.56;4995406;28;97910;-71
2021/06/18 09:11:53;;;;;;;2.33;1.52;;;40.40;44.90;;;42.45;31.88;101257.72;4988816;28;97563;-71
2021/06/18 09:14:32;;;;;;;3.13;1.73;;;39.60;45.20;;;41.13;33.22;101258.94;4990896;28;96788;-71
2021/06/18 09:17:23;;;;;;;6.68;2.17;;;38.80;45.50;;;39.87;34.38;101252.63;4991906;28;96807;-71
2021/06/18 09:19:54;;;;;;;3.15;2.17;;;37.70;45.90;;;39.01;34.70;101267.56;4990124;28;97156;-71
2021/06/18 09:22:35;;;;;;;3.03;2.00;;;36.80;46.40;;;38.21;35.65;101260.63;4988588;28;97719;-71
2021/06/18 09:25:10;;;;;;;2.65;2.20;;;36.10;46.90;;;37.60;36.14;101252.13;4990853;28;96809;-72
2021/06/18 09:27:45;;;;;;;4.82;2.10;;;35.40;47.20;;;37.21;36.30;101258.78;4993073;28;97048;-73
2021/06/18 09:30:19;;;;;;;3.47;2.85;;;34.80;47.50;;;36.90;35.92;101247.03;4989641;28;97004;-73
2021/06/18 09:32:59;;;;;;;6.60;3.30;;;34.40;47.70;;;36.49;36.15;101253.28;4991404;28;96760;-71
2021/06/18 09:35:33;;;;;;;4.25;2.65;;;34.00;47.70;;;36.19;36.20;101243.81;4991329;28;97524;-71
2021/06/18 09:38:07;;;;;;;5.10;1.52;;;33.60;47.90;;;35.96;36.02;101241.59;5004415;28;97157;-71
2021/06/18 09:40:36;;;;;;;4.05;2.55;;;33.20;47.90;;;35.89;35.69;101249.47;5001947;28;97063;-71
2021/06/18 09:43:12;;;;;;;15.75;4.15;;;33.00;48.00;;;36.07;35.39;101246.75;4991440;28;97028;-71
2021/06/18 09:45:43;;;;;;;3.58;2.05;;;32.80;48.00;;;36.42;34.49;101248.78;4990441;28;97434;-71
2021/06/18 09:48:16;;;;;;;4.13;1.88;;;32.80;47.90;;;36.87;33.59;101251.56;4993425;28;97439;-71
2021/06/18 09:50:48;;;;;;;4.40;2.35;;;32.80;47.60;;;37.50;32.59;101247.81;4994129;28;96890;-71
2021/06/18 09:53:21;;;;;;;18.27;2.95;;;33.00;47.40;;;37.89;31.54;101241.88;4993467;28;99015;-71
2021/06/18 09:56:06;;;;;;;3.92;2.22;;;33.20;47.10;;;38.02;31.82;101248.03;4994451;28;97079;-71
2021/06/18 09:58:40;;;;;;;5.10;2.58;;;33.40;46.90;;;37.87;32.08;101241.53;4998871;28;98276;-72
2021/06/18 10:01:18;;;;;;;2.50;1.77;;;33.50;46.60;;;37.44;32.57;101241.31;4992824;28;97810;-71
2021/06/18 10:04:06;;;;;;;1.75;1.65;;;33.50;46.50;;;36.97;33.16;101244.69;4999059;28;97769;-71
2021/06/18 10:06:38;;;;;;;9.38;3.22;;;33.40;46.50;;;36.61;33.40;101241.97;5001688;28;97122;-72
2021/06/18 10:09:11;;;;;;;1.70;1.10;;;33.20;46.60;;;36.29;33.70;101228.63;4993663;28;97074;-71
2021/06/18 10:11:45;;;;;;;2.10;1.90;;;33.00;46.60;;;36.08;34.03;101226.75;4989717;28;97987;-71
2021/06/18 10:14:16;;;;;;;2.75;1.13;;;32.80;46.80;;;35.80;34.31;101220.78;5007826;28;97795;-72
2021/06/18 10:16:44;;;;;;;2.95;1.73;;;32.70;46.80;;;35.48;34.33;101216.50;4997260;28;96850;-71
2021/06/18 10:19:17;;;;;;;5.90;2.63;;;32.40;46.90;;;35.29;34.30;101211.31;4993261;28;98056;-72
2021/06/18 10:21:55;;;;;;;2.50;1.88;;;32.20;47.10;;;35.16;34.40;101214.19;4996637;28;98630;-72
2021/06/18 10:24:34;;;;;;;1.55;1.30;;;32.00;47.20;;;34.88;34.74;101212.47;4992599;28;99347;-71
2021/06/18 10:27:10;;;;;;;5.47;2.58;;;31.80;47.20;;;34.42;35.09;101210.59;4994621;28;96881;-72
2021/06/18 10:29:42;;;;;;;3.15;2.38;;;31.60;47.30;;;34.04;35.95;101202.81;4995449;28;96792;-72
2021/06/18 10:32:35;;;;;;;3.40;2.57;;;31.30;47.40;;;33.75;35.95;101207.78;5007179;28;97950;-72